createdAt,value
2023-05-21T00:00:16.522Z,2
2023-05-21T00:02:13.993Z,2
2023-05-21T00:04:13.732Z,2
2023-05-21T00:08:13.741Z,3
2023-05-21T00:10:13.546Z,2
2023-05-21T00:12:13.300Z,2
2023-05-21T00:14:13.856Z,2
2023-05-21T00:16:13.532Z,2
2023-05-21T00:18:13.149Z,2
2023-05-21T00:20:13.896Z,2
2023-05-21T00:22:13.215Z,4
2023-05-21T00:24:13.884Z,4
2023-05-21T00:26:13.649Z,4
2023-05-21T00:28:13.229Z,2
2023-05-21T00:30:13.965Z,2
2023-05-21T00:32:13.428Z,2
2023-05-21T00:34:13.898Z,2
2023-05-21T00:36:13.462Z,2
2023-05-21T00:38:13.008Z,2
2023-05-21T00:40:13.910Z,2
2023-05-21T00:42:13.368Z,2
2023-05-21T00:44:13.051Z,2
2023-05-21T00:46:13.827Z,1
2023-05-21T00:48:13.437Z,1
2023-05-21T00:50:13.129Z,1
2023-05-21T00:52:13.618Z,1
2023-05-21T00:54:13.368Z,1
2023-05-21T00:56:13.852Z,1
2023-05-21T00:58:13.536Z,2
2023-05-21T01:00:15.068Z,2
2023-05-21T01:02:13.896Z,2
2023-05-21T01:04:13.341Z,2
2023-05-21T01:06:13.860Z,2
2023-05-21T01:08:13.339Z,2
2023-05-21T01:10:13.148Z,2
2023-05-21T01:12:13.535Z,2
2023-05-21T01:14:13.201Z,2
2023-05-21T01:16:13.866Z,1
2023-05-21T01:18:13.588Z,1
2023-05-21T01:20:13.488Z,1
2023-05-21T01:22:12.992Z,2
2023-05-21T01:24:13.704Z,2
2023-05-21T01:26:13.226Z,2
2023-05-21T01:28:13.678Z,2
2023-05-21T01:30:13.400Z,2
2023-05-21T01:32:12.995Z,2
2023-05-21T01:34:13.947Z,1
2023-05-21T01:36:13.100Z,1
2023-05-21T01:38:13.806Z,1
2023-05-21T01:40:13.489Z,2
2023-05-21T01:42:13.941Z,2
2023-05-21T01:44:13.437Z,2
2023-05-21T01:46:13.174Z,2
2023-05-21T01:48:13.815Z,2
2023-05-21T01:50:13.654Z,2
2023-05-21T01:52:13.066Z,2
2023-05-21T01:54:13.630Z,2
2023-05-21T01:56:13.133Z,2
2023-05-21T01:58:14.297Z,3
2023-05-21T02:00:20.628Z,3
2023-05-21T02:02:13.744Z,3
2023-05-21T02:04:13.572Z,2
2023-05-21T02:06:13.669Z,2
2023-05-21T02:08:13.325Z,2
2023-05-21T02:10:14.081Z,2
2023-05-21T02:12:13.646Z,2
2023-05-21T02:16:13.811Z,2
2023-05-21T02:18:13.567Z,2
2023-05-21T02:20:14.141Z,2
2023-05-21T02:22:13.554Z,2
2023-05-21T02:24:13.146Z,2
2023-05-21T02:26:13.837Z,2
2023-05-21T02:28:13.392Z,1
2023-05-21T02:30:13.214Z,1
2023-05-21T02:32:13.657Z,1
2023-05-21T02:34:13.300Z,2
2023-05-21T02:36:13.929Z,2
2023-05-21T02:38:13.726Z,2
2023-05-21T02:40:13.404Z,2
2023-05-21T02:42:12.945Z,2
2023-05-21T02:44:13.631Z,2
2023-05-21T02:46:13.330Z,2
2023-05-21T02:48:14.116Z,3
2023-05-21T02:50:13.947Z,1
2023-05-21T02:52:13.694Z,1
2023-05-21T02:54:13.179Z,3
2023-05-21T02:56:13.859Z,4
2023-05-21T02:58:13.393Z,4
2023-05-21T03:00:15.311Z,1
2023-05-21T03:02:13.696Z,3
2023-05-21T03:04:13.148Z,3
2023-05-21T03:06:13.678Z,3
2023-05-21T03:08:13.289Z,2
2023-05-21T03:10:14.061Z,2
2023-05-21T03:12:13.566Z,1
2023-05-21T03:14:13.220Z,2
2023-05-21T03:16:13.799Z,2
2023-05-21T03:18:13.657Z,1
2023-05-21T03:20:14.104Z,2
2023-05-21T03:22:13.674Z,2
2023-05-21T03:24:13.232Z,1
2023-05-21T03:26:13.929Z,1
2023-05-21T03:28:13.489Z,1
2023-05-21T03:30:13.165Z,1
2023-05-21T03:32:13.981Z,2
2023-05-21T03:34:13.424Z,2
2023-05-21T03:36:13.028Z,3
2023-05-21T03:38:13.456Z,4
2023-05-21T03:40:13.959Z,4
2023-05-21T03:42:13.451Z,3
2023-05-21T03:44:14.006Z,1
2023-05-21T03:46:13.612Z,1
2023-05-21T03:48:13.322Z,3
2023-05-21T03:50:14.004Z,2
2023-05-21T03:52:13.543Z,2
2023-05-21T03:54:13.233Z,1
2023-05-21T03:56:13.823Z,2
2023-05-21T03:58:13.509Z,2
2023-05-21T04:00:16.447Z,1
2023-05-21T04:02:13.910Z,1
2023-05-21T04:06:13.385Z,1
2023-05-21T04:08:13.939Z,1
2023-05-21T04:10:13.802Z,1
2023-05-21T04:12:13.420Z,1
2023-05-21T04:14:13.903Z,3
2023-05-21T04:16:13.672Z,3
2023-05-21T04:18:13.157Z,1
2023-05-21T04:20:13.831Z,1
2023-05-21T04:22:13.263Z,1
2023-05-21T04:24:12.966Z,1
2023-05-21T04:26:13.585Z,2
2023-05-21T04:28:13.398Z,2
2023-05-21T04:30:13.981Z,1
2023-05-21T04:32:13.649Z,2
2023-05-21T04:34:13.287Z,2
2023-05-21T04:36:13.993Z,3
2023-05-21T04:38:15.816Z,2
2023-05-21T04:42:13.661Z,1
2023-05-21T04:44:13.323Z,1
2023-05-21T04:46:12.978Z,1
2023-05-21T04:48:13.752Z,1
2023-05-21T04:50:13.398Z,3
2023-05-21T04:52:13.068Z,3
2023-05-21T04:54:13.779Z,3
2023-05-21T04:56:13.381Z,4
2023-05-21T04:58:13.939Z,4
2023-05-21T05:00:19.297Z,1
2023-05-21T05:02:13.897Z,2
2023-05-21T05:04:13.580Z,2
2023-05-21T05:06:13.087Z,1
2023-05-21T05:08:15.804Z,2
2023-05-21T05:12:13.220Z,4
2023-05-21T05:14:13.841Z,3
2023-05-21T05:18:13.168Z,1
2023-05-21T05:20:13.959Z,3
2023-05-21T05:22:13.667Z,3
2023-05-21T05:24:13.928Z,4
2023-05-21T05:26:13.561Z,1
2023-05-21T05:30:14.155Z,3
2023-05-21T05:32:13.335Z,2
2023-05-21T05:34:12.995Z,2
2023-05-21T05:36:13.847Z,3
2023-05-21T05:38:13.285Z,4
2023-05-21T05:40:13.169Z,4
2023-05-21T05:42:13.702Z,3
2023-05-21T05:44:13.296Z,4
2023-05-21T05:46:13.971Z,4
2023-05-21T05:48:13.597Z,3
2023-05-21T05:50:13.344Z,2
2023-05-21T05:52:13.862Z,2
2023-05-21T05:54:13.461Z,3
2023-05-21T05:56:13.956Z,3
2023-05-21T05:58:13.530Z,3
2023-05-21T06:00:17.695Z,3
2023-05-21T06:04:13.579Z,3
2023-05-21T06:06:13.306Z,3
2023-05-21T06:08:13.870Z,2
2023-05-21T06:10:13.533Z,2
2023-05-21T06:12:15.023Z,3
2023-05-21T06:14:13.500Z,2
2023-05-21T06:16:13.996Z,2
2023-05-21T06:18:13.719Z,3
2023-05-21T06:20:13.302Z,2
2023-05-21T06:22:13.813Z,2
2023-05-21T06:24:13.175Z,1
2023-05-21T06:26:13.687Z,1
2023-05-21T06:28:13.329Z,1
2023-05-21T06:30:13.260Z,3
2023-05-21T06:32:13.715Z,2
2023-05-21T06:34:13.643Z,2
2023-05-21T06:36:13.867Z,1
2023-05-21T06:38:13.552Z,4
2023-05-21T06:40:13.336Z,4
2023-05-21T06:42:13.942Z,1
2023-05-21T06:44:13.449Z,4
2023-05-21T06:46:13.166Z,4
2023-05-21T06:48:13.521Z,3
2023-05-21T06:50:13.210Z,2
2023-05-21T06:52:13.820Z,2
2023-05-21T06:54:13.330Z,1
2023-05-21T06:56:13.790Z,2
2023-05-21T06:58:13.548Z,2
2023-05-21T07:00:17.286Z,4
2023-05-21T07:02:13.995Z,2
2023-05-21T07:04:13.527Z,2
2023-05-21T07:06:13.297Z,1
2023-05-21T07:08:13.706Z,4
2023-05-21T07:10:13.631Z,4
2023-05-21T07:12:13.148Z,3
2023-05-21T07:14:13.867Z,2
2023-05-21T07:16:13.080Z,2
2023-05-21T07:18:13.715Z,3
2023-05-21T07:20:13.477Z,4
2023-05-21T07:22:13.893Z,4
2023-05-21T07:26:13.052Z,2
2023-05-21T07:28:15.489Z,2
2023-05-21T07:30:13.466Z,2
2023-05-21T07:32:12.960Z,2
2023-05-21T07:34:13.625Z,2
2023-05-21T07:36:13.294Z,1
2023-05-21T07:38:13.911Z,4
2023-05-21T07:40:13.602Z,4
2023-05-21T07:42:14.083Z,3
2023-05-21T07:44:13.418Z,2
2023-05-21T07:46:13.990Z,2
2023-05-21T07:48:13.520Z,3
2023-05-21T07:50:13.966Z,2
2023-05-21T07:52:13.323Z,2
2023-05-21T07:54:13.953Z,4
2023-05-21T07:56:13.386Z,4
2023-05-21T07:58:13.755Z,4
2023-05-21T08:04:13.719Z,4
2023-05-21T08:06:13.928Z,1
2023-05-21T08:08:13.386Z,4
2023-05-21T08:10:16.198Z,4
2023-05-21T08:14:13.973Z,4
2023-05-21T08:16:13.649Z,4
2023-05-21T08:18:14.033Z,3
2023-05-21T08:20:13.600Z,5
2023-05-21T08:22:13.080Z,5
2023-05-21T08:24:13.725Z,6
2023-05-21T08:26:13.147Z,4
2023-05-21T08:28:13.677Z,4
2023-05-21T08:30:13.574Z,4
2023-05-21T08:32:14.195Z,5
2023-05-21T08:34:13.393Z,5
2023-05-21T08:36:13.070Z,7
2023-05-21T08:38:13.628Z,5
2023-05-21T08:40:13.436Z,5
2023-05-21T08:42:19.796Z,6
2023-05-21T08:46:13.984Z,7
2023-05-21T08:48:13.531Z,4
2023-05-21T08:50:14.193Z,7
2023-05-21T08:52:13.591Z,7
2023-05-21T08:54:13.432Z,4
2023-05-21T08:56:13.792Z,5
2023-05-21T08:58:13.611Z,5
2023-05-21T09:00:17.317Z,4
2023-05-21T09:04:32.207Z,5
2023-05-21T09:06:13.059Z,7
2023-05-21T09:08:13.326Z,7
2023-05-21T09:10:13.765Z,7
2023-05-21T09:12:13.368Z,4
2023-05-21T09:14:13.680Z,5
2023-05-21T09:16:13.315Z,5
2023-05-21T09:18:14.159Z,7
2023-05-21T09:22:13.050Z,8
2023-05-21T09:24:13.660Z,7
2023-05-21T09:26:13.164Z,8
2023-05-21T09:28:13.751Z,8
2023-05-21T09:30:13.582Z,6
2023-05-21T09:32:13.867Z,7
2023-05-21T09:34:13.520Z,7
2023-05-21T09:36:13.110Z,7
2023-05-21T09:38:13.640Z,7
2023-05-21T09:40:13.369Z,7
2023-05-21T09:42:13.948Z,7
2023-05-21T09:44:13.309Z,7
2023-05-21T09:48:13.748Z,7
2023-05-21T09:50:13.439Z,8
2023-05-21T09:52:13.802Z,8
2023-05-21T09:54:13.585Z,7
2023-05-21T09:56:13.247Z,7
2023-05-21T09:58:13.812Z,7
2023-05-21T10:00:17.217Z,7
2023-05-21T10:06:14.017Z,6
2023-05-21T10:08:13.732Z,7
2023-05-21T10:10:13.328Z,7
2023-05-21T10:12:12.970Z,7
2023-05-21T10:14:13.482Z,7
2023-05-21T10:16:13.297Z,7
2023-05-21T10:18:13.716Z,6
2023-05-21T10:20:13.384Z,7
2023-05-21T10:22:13.758Z,7
2023-05-21T10:24:13.379Z,3
2023-05-21T10:26:13.837Z,7
2023-05-21T10:28:13.551Z,7
2023-05-21T10:30:14.107Z,4
2023-05-21T10:32:13.465Z,4
2023-05-21T10:34:13.055Z,4
2023-05-21T10:36:13.864Z,4
2023-05-21T10:38:13.322Z,5
2023-05-21T10:40:14.040Z,5
2023-05-21T10:42:13.461Z,5
2023-05-21T10:44:13.089Z,5
2023-05-21T10:46:13.854Z,5
2023-05-21T10:48:13.312Z,4
2023-05-21T10:50:13.981Z,5
2023-05-21T10:52:13.237Z,5
2023-05-21T10:54:13.734Z,4
2023-05-21T10:56:13.448Z,7
2023-05-21T10:58:13.911Z,7
2023-05-21T11:00:16.489Z,7
2023-05-21T11:06:13.673Z,4
2023-05-21T11:08:13.215Z,4
2023-05-21T11:10:13.926Z,4
2023-05-21T11:12:13.134Z,5
2023-05-21T11:14:13.496Z,6
2023-05-21T11:16:13.024Z,6
2023-05-21T11:18:13.735Z,4
2023-05-21T11:20:13.338Z,4
2023-05-21T11:22:13.847Z,4
2023-05-21T11:24:13.477Z,5
2023-05-21T11:28:13.395Z,6
2023-05-21T11:30:13.992Z,4
2023-05-21T11:34:13.132Z,4
2023-05-21T11:36:13.552Z,4
2023-05-21T11:38:12.994Z,6
2023-05-21T11:40:13.906Z,6
2023-05-21T11:42:16.196Z,2
2023-05-21T11:46:13.705Z,5
2023-05-21T11:48:13.174Z,1
2023-05-21T11:52:13.265Z,4
2023-05-21T11:54:13.731Z,4
2023-05-21T11:56:13.458Z,5
2023-05-21T11:58:13.867Z,5
2023-05-21T12:00:19.454Z,4
2023-05-21T12:02:13.111Z,4
2023-05-21T12:04:14.011Z,4
2023-05-21T12:06:13.248Z,2
2023-05-21T12:08:13.720Z,5
2023-05-21T12:10:13.590Z,5
2023-05-21T12:12:12.989Z,4
2023-05-21T12:14:13.629Z,4
2023-05-21T12:16:13.103Z,4
2023-05-21T12:18:13.721Z,4
2023-05-21T12:20:13.495Z,4
2023-05-21T12:22:13.992Z,4
2023-05-21T12:24:13.572Z,2
2023-05-21T12:26:13.950Z,4
2023-05-21T12:28:13.679Z,4
2023-05-21T12:30:13.443Z,4
2023-05-21T12:32:14.039Z,4
2023-05-21T12:34:13.425Z,4
2023-05-21T12:36:13.136Z,4
2023-05-21T12:38:13.561Z,4
2023-05-21T12:40:13.285Z,4
2023-05-21T12:42:13.734Z,4
2023-05-21T12:44:13.237Z,5
2023-05-21T12:46:13.853Z,5
2023-05-21T12:48:13.691Z,5
2023-05-21T12:50:14.240Z,5
2023-05-21T12:52:13.634Z,5
2023-05-21T12:54:13.329Z,5
2023-05-21T12:56:13.777Z,5
2023-05-21T12:58:13.329Z,5
2023-05-21T13:00:18.915Z,5
2023-05-21T13:02:13.598Z,5
2023-05-21T13:04:14.191Z,5
2023-05-21T13:06:13.542Z,5
2023-05-21T13:08:13.079Z,6
2023-05-21T13:10:13.948Z,6
2023-05-21T13:12:13.458Z,6
2023-05-21T13:14:13.335Z,7
2023-05-21T13:16:14.052Z,7
2023-05-21T13:20:13.294Z,4
2023-05-21T13:22:13.697Z,4
2023-05-21T13:24:13.214Z,4
2023-05-21T13:26:13.986Z,4
2023-05-21T13:28:13.416Z,4
2023-05-21T13:30:13.534Z,4
2023-05-21T13:32:14.107Z,6
2023-05-21T13:34:16.534Z,6
2023-05-21T13:38:14.036Z,7
2023-05-21T13:40:13.594Z,7
2023-05-21T13:44:13.591Z,4
2023-05-21T13:46:13.187Z,4
2023-05-21T13:48:13.693Z,4
2023-05-21T13:50:13.353Z,5
2023-05-21T13:52:13.663Z,5
2023-05-21T13:54:13.117Z,5
2023-05-21T13:56:13.787Z,4
2023-05-21T13:58:13.407Z,4
2023-05-21T14:00:17.678Z,4
2023-05-21T14:04:13.500Z,6
2023-05-21T14:08:13.504Z,6
2023-05-21T14:10:14.106Z,6
2023-05-21T14:12:15.403Z,6
2023-05-21T14:14:13.339Z,4
2023-05-21T14:16:13.884Z,4
2023-05-21T14:18:13.445Z,4
2023-05-21T14:20:14.012Z,7
2023-05-21T14:22:13.369Z,7
2023-05-21T14:24:13.915Z,7
2023-05-21T14:26:13.426Z,6
2023-05-21T14:28:13.038Z,6
2023-05-21T14:30:13.811Z,6
2023-05-21T14:32:13.405Z,5
2023-05-21T14:34:13.750Z,5
2023-05-21T14:36:13.280Z,5
2023-05-21T14:38:13.777Z,4
2023-05-21T14:40:13.822Z,4
2023-05-21T14:42:13.978Z,4
2023-05-21T14:44:13.802Z,7
2023-05-21T14:46:13.692Z,7
2023-05-21T14:48:13.934Z,7
2023-05-21T14:50:13.688Z,5
2023-05-21T14:52:13.074Z,5
2023-05-21T14:54:13.761Z,5
2023-05-21T14:58:13.835Z,5
2023-05-21T15:00:16.529Z,5
2023-05-21T15:04:14.475Z,5
2023-05-21T15:06:13.424Z,5
2023-05-21T15:08:13.972Z,4
2023-05-21T15:10:14.153Z,4
2023-05-21T15:12:13.215Z,4
2023-05-21T15:14:13.731Z,3
2023-05-21T15:16:13.574Z,3
2023-05-21T15:18:13.973Z,3
2023-05-21T15:20:13.744Z,4
2023-05-21T15:22:13.044Z,4
2023-05-21T15:24:13.562Z,4
2023-05-21T15:26:13.157Z,4
2023-05-21T15:28:13.708Z,4
2023-05-21T15:30:13.746Z,4
2023-05-21T15:32:13.777Z,5
2023-05-21T15:34:13.418Z,5
2023-05-21T15:36:13.210Z,5
2023-05-21T15:38:13.645Z,5
2023-05-21T15:40:13.663Z,5
2023-05-21T15:42:13.950Z,5
2023-05-21T15:44:13.484Z,4
2023-05-21T15:46:13.110Z,4
2023-05-21T15:48:13.568Z,4
2023-05-21T15:50:14.084Z,4
2023-05-21T15:52:13.592Z,4
2023-05-21T15:54:13.270Z,4
2023-05-21T15:56:13.768Z,4
2023-05-21T15:58:14.372Z,4
2023-05-21T16:00:16.950Z,4
2023-05-21T16:04:13.411Z,4
2023-05-21T16:06:13.948Z,4
2023-05-21T16:10:13.877Z,5
2023-05-21T16:12:13.352Z,5
2023-05-21T16:14:12.972Z,5
2023-05-21T16:16:13.498Z,5
2023-05-21T16:18:13.220Z,5
2023-05-21T16:20:13.688Z,4
2023-05-21T16:22:13.148Z,4
2023-05-21T16:24:13.655Z,4
2023-05-21T16:26:13.071Z,5
2023-05-21T16:28:13.558Z,5
2023-05-21T16:32:14.252Z,4
2023-05-21T16:34:13.376Z,4
2023-05-21T16:36:13.167Z,4
2023-05-21T16:38:13.518Z,5
2023-05-21T16:40:13.320Z,5
2023-05-21T16:42:13.771Z,5
2023-05-21T16:46:13.858Z,4
2023-05-21T16:48:13.407Z,4
2023-05-21T16:50:14.080Z,4
2023-05-21T16:52:13.545Z,4
2023-05-21T16:54:13.145Z,4
2023-05-21T16:56:13.658Z,5
2023-05-21T16:58:13.296Z,5
2023-05-21T17:00:17.121Z,5
2023-05-21T17:04:13.759Z,3
2023-05-21T17:06:13.953Z,3
2023-05-21T17:08:13.337Z,5
2023-05-21T17:10:14.019Z,5
2023-05-21T17:12:13.467Z,5
2023-05-21T17:16:13.697Z,3
2023-05-21T17:18:13.442Z,3
2023-05-21T17:20:13.819Z,7
2023-05-21T17:22:13.286Z,7
2023-05-21T17:24:13.941Z,7
2023-05-21T17:26:13.537Z,3
2023-05-21T17:28:13.158Z,3
2023-05-21T17:30:13.824Z,3
2023-05-21T17:32:13.156Z,5
2023-05-21T17:34:13.749Z,5
2023-05-21T17:36:13.583Z,5
2023-05-21T17:38:13.234Z,3
2023-05-21T17:40:14.159Z,3
2023-05-21T17:42:13.660Z,3
2023-05-21T17:44:13.327Z,4
2023-05-21T17:46:13.635Z,4
2023-05-21T17:50:14.008Z,4
2023-05-21T17:52:13.461Z,4
2023-05-21T17:54:12.958Z,4
2023-05-21T17:56:13.520Z,7
2023-05-21T17:58:13.123Z,7
2023-05-21T18:00:16.981Z,7
2023-05-21T18:04:13.925Z,4
2023-05-21T18:06:13.300Z,4
2023-05-21T18:08:13.712Z,5
2023-05-21T18:10:13.524Z,5
2023-05-21T18:12:13.936Z,5
2023-05-21T18:14:13.519Z,5
2023-05-21T18:16:14.020Z,5
2023-05-21T18:18:13.734Z,5
2023-05-21T18:20:13.278Z,9
2023-05-21T18:22:13.766Z,9
2023-05-21T18:24:13.388Z,9
2023-05-21T18:26:13.947Z,7
2023-05-21T18:28:13.425Z,7
2023-05-21T18:30:13.123Z,7
2023-05-21T18:32:13.880Z,9
2023-05-21T18:34:13.364Z,9
2023-05-21T18:38:13.407Z,6
2023-05-21T18:40:13.420Z,6
2023-05-21T18:42:25.229Z,6
2023-05-21T18:44:13.086Z,6
2023-05-21T18:46:13.879Z,6
2023-05-21T18:48:13.446Z,6
2023-05-21T18:50:13.953Z,7
2023-05-21T18:52:13.529Z,7
2023-05-21T18:54:13.051Z,7
2023-05-21T18:56:13.449Z,6
2023-05-21T18:58:13.044Z,6
2023-05-21T19:02:13.788Z,6
2023-05-21T19:04:13.286Z,6
2023-05-21T19:06:13.162Z,6
2023-05-21T19:10:13.487Z,6
2023-05-21T19:12:13.026Z,6
2023-05-21T19:14:13.468Z,7
2023-05-21T19:16:14.166Z,7
2023-05-21T19:18:13.565Z,7
2023-05-21T19:20:14.125Z,6
2023-05-21T19:22:13.529Z,6
2023-05-21T19:24:16.992Z,6
2023-05-21T19:28:13.367Z,6
2023-05-21T19:30:13.236Z,6
2023-05-21T19:32:13.655Z,6
2023-05-21T19:34:13.350Z,6
2023-05-21T19:36:13.895Z,6
2023-05-21T19:38:16.961Z,4
2023-05-21T19:42:13.614Z,4
2023-05-21T19:44:13.150Z,6
2023-05-21T19:46:14.833Z,6
2023-05-21T19:50:14.060Z,9
2023-05-21T19:54:13.090Z,9
2023-05-21T19:56:13.836Z,6
2023-05-21T19:58:13.420Z,6
2023-05-21T20:00:17.089Z,6
2023-05-21T20:04:13.491Z,6
2023-05-21T20:06:13.740Z,6
2023-05-21T20:08:13.441Z,6
2023-05-21T20:10:13.970Z,6
2023-05-21T20:14:13.876Z,6
2023-05-21T20:16:13.589Z,6
2023-05-21T20:18:13.289Z,6
2023-05-21T20:20:13.855Z,4
2023-05-21T20:22:13.379Z,4
2023-05-21T20:24:13.980Z,4
2023-05-21T20:26:13.361Z,4
2023-05-21T20:28:13.979Z,4
2023-05-21T20:30:13.835Z,4
2023-05-21T20:32:13.305Z,6
2023-05-21T20:34:13.781Z,6
2023-05-21T20:38:13.694Z,4
2023-05-21T20:40:15.020Z,4
2023-05-21T20:42:13.256Z,4
2023-05-21T20:44:13.779Z,4
2023-05-21T20:48:13.110Z,4
2023-05-21T20:50:13.859Z,3
2023-05-21T20:52:13.370Z,3
2023-05-21T20:54:12.984Z,3
2023-05-21T20:56:13.577Z,4
2023-05-21T20:58:13.222Z,4
2023-05-21T21:00:19.477Z,4
2023-05-21T21:02:13.593Z,4
2023-05-21T21:04:13.242Z,4
2023-05-21T21:06:13.736Z,4
2023-05-21T21:08:13.205Z,4
2023-05-21T21:10:14.048Z,4
2023-05-21T21:12:32.976Z,4
2023-05-21T21:14:13.025Z,4
2023-05-21T21:16:13.755Z,4
2023-05-21T21:18:13.254Z,4
2023-05-21T21:20:13.879Z,4
2023-05-21T21:22:13.330Z,4
2023-05-21T21:24:13.039Z,4
2023-05-21T21:26:13.680Z,3
2023-05-21T21:28:13.296Z,3
2023-05-21T21:30:13.168Z,3
2023-05-21T21:32:13.756Z,2
2023-05-21T21:34:13.673Z,2
2023-05-21T21:36:13.127Z,2
2023-05-21T21:38:13.800Z,2
2023-05-21T21:40:13.706Z,2
2023-05-21T21:42:13.025Z,2
2023-05-21T21:44:13.579Z,4
2023-05-21T21:46:13.330Z,4
2023-05-21T21:48:13.933Z,4
2023-05-21T21:50:13.509Z,4
2023-05-21T21:52:13.072Z,4
2023-05-21T21:54:13.772Z,4
2023-05-21T21:56:13.387Z,4
2023-05-21T21:58:13.899Z,4
2023-05-21T22:00:25.604Z,4
2023-05-21T22:06:13.565Z,4
2023-05-21T22:08:13.281Z,4
2023-05-21T22:10:14.109Z,4
2023-05-21T22:12:13.584Z,4
2023-05-21T22:14:13.241Z,4
2023-05-21T22:16:13.760Z,4
2023-05-21T22:18:13.363Z,4
2023-05-21T22:22:13.646Z,2
2023-05-21T22:24:24.111Z,2
2023-05-21T22:26:13.746Z,4
2023-05-21T22:28:13.500Z,4
2023-05-21T22:30:13.173Z,4
2023-05-21T22:32:13.559Z,4
2023-05-21T22:34:13.181Z,4
2023-05-21T22:36:13.759Z,4
2023-05-21T22:38:13.263Z,4
2023-05-21T22:40:14.066Z,4
2023-05-21T22:42:13.676Z,4
2023-05-21T22:44:13.225Z,3
2023-05-21T22:46:13.790Z,3
2023-05-21T22:48:13.480Z,3
2023-05-21T22:50:13.999Z,3
2023-05-21T22:52:13.621Z,3
2023-05-21T22:54:13.426Z,3
2023-05-21T22:56:13.806Z,4
2023-05-21T22:58:13.589Z,4
2023-05-21T23:00:16.955Z,4
2023-05-21T23:04:13.530Z,4
2023-05-21T23:06:14.027Z,4
2023-05-21T23:08:13.608Z,4
2023-05-21T23:10:14.140Z,4
2023-05-21T23:12:13.578Z,4
2023-05-21T23:14:12.997Z,4
2023-05-21T23:16:13.889Z,4
2023-05-21T23:18:13.618Z,4
2023-05-21T23:20:14.081Z,4
2023-05-21T23:22:13.610Z,4
2023-05-21T23:24:13.049Z,4
2023-05-21T23:26:13.563Z,3
2023-05-21T23:28:13.163Z,3
2023-05-21T23:30:13.716Z,3
2023-05-21T23:32:13.155Z,4
2023-05-21T23:34:13.666Z,4
2023-05-21T23:36:13.239Z,4
2023-05-21T23:38:13.922Z,3
2023-05-21T23:40:13.648Z,3
2023-05-21T23:42:13.016Z,3
2023-05-21T23:44:13.924Z,3
2023-05-21T23:46:13.966Z,3
2023-05-21T23:48:13.423Z,3
2023-05-21T23:50:13.811Z,4
2023-05-21T23:52:13.301Z,4
2023-05-21T23:54:14.127Z,4
2023-05-21T23:56:13.362Z,3
2023-05-21T23:58:13.942Z,3
